createdAt,value
2022-09-03T04:31:15.149Z,101646.81
2022-09-03T04:33:42.819Z,101640.38
2022-09-03T04:36:11.183Z,101648.78
2022-09-03T04:38:39.522Z,101648.78
2022-09-03T04:41:07.109Z,101646.00
2022-09-03T04:43:34.653Z,101647.97
2022-09-03T04:46:03.135Z,101637.56
2022-09-03T04:48:32.110Z,101635.94
2022-09-03T04:51:05.916Z,101634.31
2022-09-03T04:53:34.078Z,101635.94
2022-09-03T04:56:01.616Z,101638.75
2022-09-03T04:58:29.148Z,101643.53
2022-09-03T05:00:56.755Z,101646.34
2022-09-03T05:03:24.440Z,101646.34
2022-09-03T05:05:56.572Z,101645.53
2022-09-03T05:08:24.284Z,101645.53
2022-09-03T05:10:51.955Z,101645.53
2022-09-03T05:13:22.627Z,101643.91
2022-09-03T05:15:50.135Z,101656.78
2022-09-03T05:18:17.881Z,101652.34
2022-09-03T05:20:45.390Z,101653.16
2022-09-03T05:23:14.363Z,101655.16
2022-09-03T05:25:41.952Z,101660.78
2022-09-03T05:28:09.480Z,101660.78
2022-09-03T05:30:38.617Z,101657.97
2022-09-03T05:33:06.558Z,101653.53
2022-09-03T05:35:35.403Z,101653.53
2022-09-03T05:38:03.653Z,101659.97
2022-09-03T05:40:33.893Z,101650.72
2022-09-03T05:43:05.337Z,101656.34
2022-09-03T05:45:36.388Z,101657.50
2022-09-03T05:48:04.159Z,101663.94
2022-09-03T05:50:32.003Z,101661.97
2022-09-03T05:52:59.769Z,101666.75
2022-09-03T05:55:28.635Z,101664.78
2022-09-03T05:57:57.732Z,101668.72
2022-09-03T06:00:25.315Z,101665.91
2022-09-03T06:02:53.473Z,101654.69
2022-09-03T06:05:21.262Z,101663.13
2022-09-03T06:07:49.605Z,101657.50
2022-09-03T06:10:21.259Z,101663.13
2022-09-03T06:12:52.299Z,101663.13
2022-09-03T06:15:21.204Z,101662.28
2022-09-03T06:17:48.816Z,101663.13
2022-09-03T06:20:16.312Z,101663.13
2022-09-03T06:22:45.892Z,101669.91
2022-09-03T06:25:15.232Z,101665.09
2022-09-03T06:27:43.089Z,101660.31
2022-09-03T06:30:11.988Z,101672.72
2022-09-03T06:32:46.012Z,101672.72
2022-09-03T06:35:13.521Z,101672.72
2022-09-03T06:37:41.191Z,101677.16
2022-09-03T06:40:13.291Z,101675.53
2022-09-03T06:42:41.211Z,101679.16
2022-09-03T06:45:13.561Z,101679.16
2022-09-03T06:47:41.116Z,101669.91
2022-09-03T06:50:10.525Z,101672.72
2022-09-03T06:52:38.071Z,101679.16
2022-09-03T06:55:06.077Z,101681.16
2022-09-03T06:57:33.604Z,101669.91
2022-09-03T07:00:02.598Z,101679.97
2022-09-03T07:02:30.134Z,101674.34
2022-09-03T07:04:57.666Z,101673.53
2022-09-03T07:07:27.961Z,101668.72
2022-09-03T07:09:55.598Z,101668.72
2022-09-03T07:12:23.283Z,101677.16
2022-09-03T07:14:51.311Z,101676.34
2022-09-03T07:17:18.895Z,101673.53
2022-09-03T07:19:46.459Z,101688.41
2022-09-03T07:22:14.081Z,101678.34
2022-09-03T07:24:43.075Z,101679.97
2022-09-03T07:27:14.449Z,101685.59
2022-09-03T07:29:42.800Z,101679.97
2022-09-03T07:32:10.663Z,101685.59
2022-09-03T07:34:38.396Z,101679.97
2022-09-03T07:37:07.339Z,101688.41
2022-09-03T07:39:34.900Z,101685.59
2022-09-03T07:42:03.942Z,101685.59
2022-09-03T07:44:31.456Z,101680.81
2022-09-03T07:46:59.032Z,101685.59
2022-09-03T07:49:26.649Z,101681.63
2022-09-03T07:51:54.684Z,101696.84
2022-09-03T07:54:23.890Z,101696.84
2022-09-03T07:56:51.530Z,101688.41
2022-09-03T07:59:21.441Z,101685.59
2022-09-03T08:01:49.047Z,101689.59
2022-09-03T08:04:16.609Z,101696.84
2022-09-03T08:06:44.140Z,101696.84
2022-09-03T08:09:13.608Z,101696.84
2022-09-03T08:11:41.786Z,101694.03
2022-09-03T08:14:09.963Z,101685.59
2022-09-03T08:16:39.535Z,101692.06
2022-09-03T08:19:07.729Z,101688.41
2022-09-03T08:21:35.799Z,101682.78
2022-09-03T08:24:03.503Z,101684.78
2022-09-03T08:26:31.572Z,101691.22
2022-09-03T08:28:59.123Z,101689.25
2022-09-03T08:31:27.996Z,101687.25
2022-09-03T08:33:57.282Z,101678.00
2022-09-03T08:36:25.314Z,101674.34
2022-09-03T08:38:55.251Z,101678.00
2022-09-03T08:41:24.599Z,101680.44
2022-09-03T08:43:56.857Z,101673.66
2022-09-03T08:46:26.033Z,101670.84
2022-09-03T08:48:54.882Z,101673.66
2022-09-03T08:51:23.997Z,101668.03
2022-09-03T08:53:55.165Z,101682.88
2022-09-03T08:56:25.297Z,101660.78
2022-09-03T08:58:52.930Z,101662.41
2022-09-03T09:01:24.604Z,101666.84
2022-09-03T09:03:54.284Z,101661.22
2022-09-03T09:06:24.925Z,101664.03
2022-09-03T09:09:00.530Z,101658.41
2022-09-03T09:11:30.705Z,101659.22
2022-09-03T09:14:00.124Z,101655.59
2022-09-03T09:16:30.941Z,101655.59
2022-09-03T09:19:01.804Z,101645.53
2022-09-03T09:21:31.017Z,101647.16
2022-09-03T09:23:59.016Z,101644.34
2022-09-03T09:26:26.590Z,101644.34
2022-09-03T09:28:57.219Z,101643.19
2022-09-03T09:31:24.760Z,101637.56
2022-09-03T09:33:52.418Z,101636.75
2022-09-03T09:36:20.321Z,101634.75
2022-09-03T09:38:49.556Z,101631.13
2022-09-03T09:41:17.329Z,101620.69
2022-09-03T09:43:45.413Z,101620.69
2022-09-03T09:46:14.454Z,101622.34
2022-09-03T09:48:46.492Z,101613.44
2022-09-03T09:51:14.861Z,101609.44
2022-09-03T09:53:44.915Z,101620.69
2022-09-03T09:56:22.485Z,101615.88
2022-09-03T09:58:50.043Z,101615.88
2022-09-03T10:01:19.366Z,101607.81
2022-09-03T10:03:49.637Z,101610.25
2022-09-03T10:06:34.622Z,101605.50
2022-09-03T10:09:08.586Z,101593.41
2022-09-03T10:11:40.463Z,101599.88
2022-09-03T10:14:10.085Z,101599.88
2022-09-03T10:16:40.581Z,101599.88
2022-09-03T10:19:10.558Z,101597.06
2022-09-03T10:21:40.752Z,101612.75
2022-09-03T10:24:16.470Z,101594.25
2022-09-03T10:26:46.432Z,101579.00
2022-09-03T10:29:16.143Z,101593.06
2022-09-03T10:31:46.614Z,101581.00
2022-09-03T10:34:15.470Z,101583.44
2022-09-03T10:36:45.532Z,101588.63
2022-09-03T10:39:14.726Z,101581.00
2022-09-03T10:41:47.465Z,101579.81
2022-09-03T10:44:22.540Z,101577.38
2022-09-03T10:46:53.994Z,101578.19
2022-09-03T10:49:39.215Z,101573.41
2022-09-03T10:52:08.784Z,101577.38
2022-09-03T10:54:42.699Z,101560.16
2022-09-03T10:57:14.630Z,101576.19
2022-09-03T10:59:48.103Z,101578.19
2022-09-03T11:02:22.685Z,101567.78
2022-09-03T11:04:54.469Z,101572.56
2022-09-03T11:07:22.423Z,101572.56
2022-09-03T11:09:51.742Z,101567.78
2022-09-03T11:12:21.540Z,101562.16
2022-09-03T11:14:51.874Z,101567.78
2022-09-03T11:17:21.508Z,101572.22
2022-09-03T11:19:50.922Z,101573.41
2022-09-03T11:22:20.919Z,101584.63
2022-09-03T11:24:51.066Z,101568.59
2022-09-03T11:27:24.002Z,101560.16
2022-09-03T11:29:53.927Z,101556.53
2022-09-03T11:32:23.309Z,101550.91
2022-09-03T11:34:51.365Z,101549.72
2022-09-03T11:37:19.975Z,101546.91
2022-09-03T11:39:54.343Z,101550.91
2022-09-03T11:42:28.606Z,101551.72
2022-09-03T11:45:00.225Z,101540.09
2022-09-03T11:47:38.250Z,101544.09
2022-09-03T11:50:06.707Z,101546.91
2022-09-03T11:52:40.337Z,101534.88
2022-09-03T11:55:08.316Z,101530.88
2022-09-03T11:57:43.373Z,101528.06
2022-09-03T12:00:13.174Z,101527.69
2022-09-03T12:02:45.158Z,101515.19
2022-09-03T12:05:19.484Z,101535.66
2022-09-03T12:07:50.871Z,101526.88
2022-09-03T12:10:27.113Z,101521.63
2022-09-03T12:12:58.955Z,101514.81
2022-09-03T12:15:37.228Z,101521.25
2022-09-03T12:18:20.249Z,101515.63
2022-09-03T12:20:48.048Z,101521.25
2022-09-03T12:23:16.419Z,101513.19
2022-09-03T12:25:45.752Z,101515.63
2022-09-03T12:28:19.399Z,101510.81
2022-09-03T12:30:47.465Z,101504.38
2022-09-03T12:33:18.043Z,101503.56
2022-09-03T12:36:01.042Z,101503.56
2022-09-03T12:38:29.425Z,101502.38
2022-09-03T12:43:50.568Z,101510.81
2022-09-03T12:46:18.434Z,101504.00
2022-09-03T12:49:30.070Z,101500.38
2022-09-03T12:51:55.455Z,101493.16
2022-09-03T12:54:24.077Z,101491.16
2022-09-03T12:56:53.195Z,101487.16
2022-09-03T12:59:22.042Z,101492.78
2022-09-03T13:01:50.725Z,101488.34
2022-09-03T13:04:18.658Z,101495.56
2022-09-03T13:06:49.865Z,101489.97
2022-09-03T13:09:17.739Z,101484.34
2022-09-03T13:11:45.271Z,101481.53
2022-09-03T13:14:13.335Z,101473.09
2022-09-03T13:16:56.139Z,101472.28
2022-09-03T13:19:26.153Z,101473.09
2022-09-03T13:21:55.382Z,101469.13
2022-09-03T13:24:37.885Z,101477.91
2022-09-03T13:27:08.393Z,101471.47
2022-09-03T13:29:40.736Z,101467.47
2022-09-03T13:32:12.428Z,101475.91
2022-09-03T13:34:41.316Z,101478.72
2022-09-03T13:37:12.909Z,101474.75
2022-09-03T13:39:41.694Z,101479.56
2022-09-03T13:42:10.823Z,101480.38
2022-09-03T13:44:42.138Z,101468.31
2022-09-03T13:47:11.174Z,101476.38
2022-09-03T13:49:58.008Z,101464.66
2022-09-03T13:52:26.471Z,101469.13
2022-09-03T13:54:55.732Z,101457.88
2022-09-03T13:57:26.091Z,101460.69
2022-09-03T13:59:53.839Z,101452.28
2022-09-03T14:02:24.582Z,101446.66
2022-09-03T14:04:59.857Z,101448.28
2022-09-03T14:07:28.138Z,101447.47
2022-09-03T14:09:59.656Z,101446.66
2022-09-03T14:12:31.677Z,101441.84
2022-09-03T14:15:00.474Z,101448.28
2022-09-03T14:17:33.276Z,101447.47
2022-09-03T14:20:01.510Z,101447.47
2022-09-03T14:22:30.545Z,101448.28
2022-09-03T14:24:59.269Z,101446.66
2022-09-03T14:27:27.246Z,101443.84
2022-09-03T14:29:55.685Z,101448.66
2022-09-03T14:32:25.481Z,101440.22
2022-09-03T14:35:00.261Z,101436.22
2022-09-03T14:37:38.466Z,101441.84
2022-09-03T14:40:06.965Z,101444.66
2022-09-03T14:42:41.804Z,101438.22
2022-09-03T14:45:33.922Z,101427.78
2022-09-03T14:48:08.988Z,101418.53
2022-09-03T14:50:42.253Z,101434.22
2022-09-03T14:53:20.125Z,101435.41
2022-09-03T14:56:05.686Z,101435.41
2022-09-03T14:58:50.042Z,101435.41
2022-09-03T15:01:19.081Z,101431.41
2022-09-03T15:04:05.462Z,101429.78
2022-09-03T15:06:43.999Z,101431.41
2022-09-03T15:09:29.689Z,101428.59
2022-09-03T15:11:58.510Z,101424.97
2022-09-03T15:14:27.887Z,101424.16
2022-09-03T15:16:58.357Z,101418.53
2022-09-03T15:19:34.088Z,101428.13
2022-09-03T15:22:09.696Z,101435.41
2022-09-03T15:24:40.701Z,101433.41
2022-09-03T15:27:10.977Z,101441.03
2022-09-03T15:29:49.751Z,101435.41
2022-09-03T15:32:20.270Z,101441.03
2022-09-03T15:34:51.188Z,101432.59
2022-09-03T15:37:21.541Z,101432.59
2022-09-03T15:39:49.381Z,101435.41
2022-09-03T15:42:18.805Z,101437.03
2022-09-03T15:44:46.973Z,101431.41
2022-09-03T15:47:15.668Z,101438.22
2022-09-03T15:49:46.017Z,101435.41
2022-09-03T15:52:20.217Z,101442.66
2022-09-03T15:54:49.508Z,101431.41
2022-09-03T15:57:19.399Z,101438.22
2022-09-03T15:59:48.503Z,101434.22
2022-09-03T16:02:16.383Z,101437.03
2022-09-03T16:04:52.154Z,101433.41
2022-09-03T16:07:21.695Z,101430.59
2022-09-03T16:10:20.700Z,101430.59
2022-09-03T16:12:46.252Z,101435.41
2022-09-03T16:15:15.484Z,101431.41
2022-09-03T16:17:45.928Z,101431.41
2022-09-03T16:20:16.142Z,101431.41
2022-09-03T16:22:44.692Z,101429.78
2022-09-03T16:25:15.604Z,101432.22
2022-09-03T16:27:43.724Z,101428.59
2022-09-03T16:30:12.159Z,101437.03
2022-09-03T16:32:49.431Z,101437.03
2022-09-03T16:35:18.523Z,101442.66
2022-09-03T16:37:48.568Z,101442.66
2022-09-03T16:40:24.539Z,101442.66
2022-09-03T16:42:54.424Z,101436.22
2022-09-03T16:45:27.367Z,101444.28
2022-09-03T16:48:03.581Z,101442.66
2022-09-03T16:50:33.059Z,101437.03
2022-09-03T16:53:02.970Z,101444.28
2022-09-03T16:55:33.839Z,101443.47
2022-09-03T16:58:08.066Z,101439.84
2022-09-03T17:00:39.720Z,101437.03
2022-09-03T17:03:25.827Z,101442.66
2022-09-03T17:06:07.148Z,101441.84
2022-09-03T17:08:36.161Z,101437.03
2022-09-03T17:11:07.939Z,101444.28
2022-09-03T17:13:48.041Z,101446.28
2022-09-03T17:16:21.730Z,101443.47
2022-09-03T17:18:52.816Z,101441.47
2022-09-03T17:21:24.015Z,101449.91
2022-09-03T17:24:09.609Z,101445.47
2022-09-03T17:26:40.342Z,101449.09
2022-09-03T17:29:12.982Z,101449.09
2022-09-03T17:31:42.458Z,101442.66
2022-09-03T17:34:13.383Z,101441.47
2022-09-03T17:36:41.914Z,101441.47
2022-09-03T17:39:24.623Z,101442.66
2022-09-03T17:41:54.304Z,101448.28
2022-09-03T17:44:25.233Z,101446.28
2022-09-03T17:46:57.072Z,101453.91
2022-09-03T17:49:24.876Z,101461.13
2022-09-03T17:51:53.003Z,101461.94
2022-09-03T17:54:22.925Z,101461.13
2022-09-03T17:56:52.205Z,101469.56
2022-09-03T17:59:22.361Z,101466.75
2022-09-03T18:01:51.283Z,101465.94
2022-09-03T18:04:28.602Z,101468.38
2022-09-03T18:06:57.284Z,101472.38
2022-09-03T18:09:26.139Z,101480.81
2022-09-03T18:11:56.153Z,101483.63
2022-09-03T18:14:25.767Z,101488.06
2022-09-03T18:16:53.875Z,101477.19
2022-09-03T18:19:29.215Z,101481.63
2022-09-03T18:22:21.100Z,101485.25
2022-09-03T18:25:08.052Z,101482.81
2022-09-03T18:27:55.347Z,101487.25
2022-09-03T18:30:41.744Z,101489.25
2022-09-03T18:33:26.703Z,101496.50
2022-09-03T18:36:11.907Z,101494.88
2022-09-03T18:38:57.372Z,101494.88
2022-09-03T18:41:52.710Z,101494.88
2022-09-03T18:44:40.520Z,101494.88
2022-09-03T18:50:35.583Z,101496.50
2022-09-03T18:53:21.547Z,101498.50
2022-09-03T18:56:11.068Z,101504.09
2022-09-03T18:58:59.822Z,101503.28
2022-09-03T19:01:46.196Z,101502.09
2022-09-03T19:04:34.060Z,101502.09
2022-09-03T19:07:20.903Z,101502.09
2022-09-03T19:10:07.555Z,101498.50
2022-09-03T19:12:59.169Z,101495.69
2022-09-03T19:15:46.086Z,101495.69
2022-09-03T19:18:34.711Z,101509.34
2022-09-03T19:21:23.549Z,101507.72
2022-09-03T19:24:17.257Z,101506.91
2022-09-03T19:27:23.569Z,101507.72
2022-09-03T19:30:15.305Z,101507.72
2022-09-03T19:33:02.137Z,101513.34
2022-09-03T19:35:47.996Z,101517.34
2022-09-03T19:38:36.500Z,101520.16
2022-09-03T19:41:24.596Z,101516.16
2022-09-03T19:44:13.083Z,101526.22
2022-09-03T19:46:59.152Z,101523.41
2022-09-03T19:49:50.111Z,101522.97
2022-09-03T19:52:38.142Z,101524.59
2022-09-03T19:55:24.768Z,101523.41
2022-09-03T19:58:39.150Z,101524.59
2022-09-03T20:01:19.840Z,101528.59
2022-09-03T20:04:04.933Z,101530.22
2022-09-03T20:06:50.238Z,101524.59
2022-09-03T20:09:36.104Z,101531.03
2022-09-03T20:12:08.399Z,101527.41
2022-09-03T20:14:37.837Z,101530.22
2022-09-03T20:17:20.610Z,101530.22
2022-09-03T20:19:52.184Z,101535.84
2022-09-03T20:22:20.510Z,101549.91
2022-09-03T20:24:56.454Z,101547.09
2022-09-03T20:27:27.149Z,101547.09
2022-09-03T20:29:57.792Z,101542.28
2022-09-03T20:32:30.508Z,101541.47
2022-09-03T20:34:59.119Z,101549.09
2022-09-03T20:37:29.171Z,101547.09
2022-09-03T20:40:04.702Z,101549.91
2022-09-03T20:42:37.010Z,101552.69
2022-09-03T20:45:06.621Z,101547.09
2022-09-03T20:47:42.140Z,101547.09
2022-09-03T20:50:15.133Z,101561.13
2022-09-03T20:52:45.878Z,101551.88
2022-09-03T20:55:13.944Z,101559.13
2022-09-03T20:57:45.816Z,101557.13
2022-09-03T21:00:14.052Z,101555.50
2022-09-03T21:02:53.340Z,101549.91
2022-09-03T21:05:22.446Z,101563.13
2022-09-03T21:07:53.242Z,101554.31
2022-09-03T21:10:22.852Z,101563.94
2022-09-03T21:12:52.979Z,101547.09
2022-09-03T21:15:22.681Z,101557.94
2022-09-03T21:17:54.177Z,101552.69
2022-09-03T21:20:23.549Z,101553.50
2022-09-03T21:22:55.001Z,101553.50
2022-09-03T21:25:24.380Z,101559.94
2022-09-03T21:27:55.303Z,101559.94
2022-09-03T21:30:22.932Z,101559.94
2022-09-03T21:32:51.360Z,101559.94
2022-09-03T21:35:20.549Z,101562.75
2022-09-03T21:37:50.860Z,101574.00
2022-09-03T21:40:24.424Z,101571.19
2022-09-03T21:42:55.233Z,101573.19
2022-09-03T21:45:24.893Z,101576.81
2022-09-03T21:47:52.744Z,101571.19
2022-09-03T21:50:21.339Z,101576.81
2022-09-03T21:52:50.046Z,101575.19
2022-09-03T21:55:20.024Z,101574.00
2022-09-03T21:57:48.681Z,101581.63
2022-09-03T22:00:19.086Z,101575.19
2022-09-03T22:02:47.317Z,101583.63
2022-09-03T22:05:15.092Z,101588.06
2022-09-03T22:07:53.609Z,101582.44
2022-09-03T22:10:22.535Z,101587.25
2022-09-03T22:12:52.159Z,101588.06
2022-09-03T22:15:21.599Z,101581.63
2022-09-03T22:17:56.873Z,101582.81
2022-09-03T22:20:52.722Z,101588.06
2022-09-03T22:23:24.701Z,101592.53
2022-09-03T22:25:55.970Z,101585.63
2022-09-03T22:28:25.982Z,101589.72
2022-09-03T22:30:55.754Z,101586.44
2022-09-03T22:33:24.317Z,101593.69
2022-09-03T22:36:06.720Z,101590.88
2022-09-03T22:38:41.202Z,101596.50
2022-09-03T22:41:11.757Z,101598.50
2022-09-03T22:43:39.556Z,101604.91
2022-09-03T22:46:09.641Z,101603.28
2022-09-03T22:48:41.769Z,101605.75
2022-09-03T22:51:09.700Z,101603.28
2022-09-03T22:53:43.788Z,101608.91
2022-09-03T22:56:11.757Z,101607.72
2022-09-03T22:58:39.727Z,101608.91
2022-09-03T23:45:27.406Z,101618.53
2022-09-03T23:47:59.254Z,101621.34
2022-09-03T23:50:29.056Z,101623.34
2022-09-03T23:53:03.524Z,101625.78
2022-09-03T23:55:34.431Z,101626.59
2022-09-03T23:58:04.669Z,101632.59
